sensor_id;sensor_type;location;lat;lon;timestamp;temperature;humidity
10247;DHT22;5168;47.854;7.944;2023-05-13T00:00:12;6.60;99.90
10247;DHT22;5168;47.854;7.944;2023-05-13T00:02:37;6.50;99.90
10247;DHT22;5168;47.854;7.944;2023-05-13T00:12:21;6.40;99.90
10247;DHT22;5168;47.854;7.944;2023-05-13T00:14:47;6.50;99.90
10247;DHT22;5168;47.854;7.944;2023-05-13T00:17:12;6.40;99.90
10247;DHT22;5168;47.854;7.944;2023-05-13T00:29:22;6.10;99.90
10247;DHT22;5168;47.854;7.944;2023-05-13T00:31:47;6.50;99.90
10247;DHT22;5168;47.854;7.944;2023-05-13T00:34:13;6.20;99.90
10247;DHT22;5168;47.854;7.944;2023-05-13T00:39:04;6.40;99.90
10247;DHT22;5168;47.854;7.944;2023-05-13T00:41:30;6.50;99.90
10247;DHT22;5168;47.854;7.944;2023-05-13T00:43:56;6.20;99.90
10247;DHT22;5168;47.854;7.944;2023-05-13T00:46:22;6.50;99.90
10247;DHT22;5168;47.854;7.944;2023-05-13T00:48:49;6.70;99.90
10247;DHT22;5168;47.854;7.944;2023-05-13T00:51:14;6.60;99.90
10247;DHT22;5168;47.854;7.944;2023-05-13T00:53:41;6.70;99.90
10247;DHT22;5168;47.854;7.944;2023-05-13T00:56:07;6.50;99.90
10247;DHT22;5168;47.854;7.944;2023-05-13T00:58:32;6.40;99.90
10247;DHT22;5168;47.854;7.944;2023-05-13T01:06:35;6.80;99.90
10247;DHT22;5168;47.854;7.944;2023-05-13T01:11:52;6.70;99.90
10247;DHT22;5168;47.854;7.944;2023-05-13T01:14:24;7.00;99.90
10247;DHT22;5168;47.854;7.944;2023-05-13T01:16:57;6.90;99.90
10247;DHT22;5168;47.854;7.944;2023-05-13T01:19:37;6.70;99.90
10247;DHT22;5168;47.854;7.944;2023-05-13T01:22:04;6.90;99.90
10247;DHT22;5168;47.854;7.944;2023-05-13T01:26:58;6.90;99.90
10247;DHT22;5168;47.854;7.944;2023-05-13T01:29:24;7.20;99.90
10247;DHT22;5168;47.854;7.944;2023-05-13T01:31:51;7.20;99.90
10247;DHT22;5168;47.854;7.944;2023-05-13T01:34:18;6.90;99.90
10247;DHT22;5168;47.854;7.944;2023-05-13T01:36:44;7.20;99.90
10247;DHT22;5168;47.854;7.944;2023-05-13T01:39:11;7.00;99.90
10247;DHT22;5168;47.854;7.944;2023-05-13T01:41:37;7.10;99.90
10247;DHT22;5168;47.854;7.944;2023-05-13T01:44:03;6.80;99.90
10247;DHT22;5168;47.854;7.944;2023-05-13T01:46:28;6.90;99.90
10247;DHT22;5168;47.854;7.944;2023-05-13T01:48:54;6.90;99.90
10247;DHT22;5168;47.854;7.944;2023-05-13T01:53:46;6.70;99.90
10247;DHT22;5168;47.854;7.944;2023-05-13T01:58:37;7.00;99.90
10247;DHT22;5168;47.854;7.944;2023-05-13T02:01:03;7.20;99.90
10247;DHT22;5168;47.854;7.944;2023-05-13T02:03:28;6.40;99.90
10247;DHT22;5168;47.854;7.944;2023-05-13T02:05:54;7.10;99.90
10247;DHT22;5168;47.854;7.944;2023-05-13T02:08:20;7.10;99.90
10247;DHT22;5168;47.854;7.944;2023-05-13T02:10:57;7.10;99.90
10247;DHT22;5168;47.854;7.944;2023-05-13T02:13:24;7.00;99.90
10247;DHT22;5168;47.854;7.944;2023-05-13T02:25:33;6.40;99.90
10247;DHT22;5168;47.854;7.944;2023-05-13T02:27:59;6.50;99.90
10247;DHT22;5168;47.854;7.944;2023-05-13T02:30:25;6.70;99.90
10247;DHT22;5168;47.854;7.944;2023-05-13T02:32:52;6.70;99.90
10247;DHT22;5168;47.854;7.944;2023-05-13T02:35:17;6.00;99.90
10247;DHT22;5168;47.854;7.944;2023-05-13T02:37:43;6.90;99.90
10247;DHT22;5168;47.854;7.944;2023-05-13T02:40:09;6.90;99.90
10247;DHT22;5168;47.854;7.944;2023-05-13T02:42:35;6.50;99.90
10247;DHT22;5168;47.854;7.944;2023-05-13T02:47:26;6.70;99.90
10247;DHT22;5168;47.854;7.944;2023-05-13T02:49:54;6.80;99.90
10247;DHT22;5168;47.854;7.944;2023-05-13T02:52:20;6.60;99.90
10247;DHT22;5168;47.854;7.944;2023-05-13T02:54:45;6.60;99.90
10247;DHT22;5168;47.854;7.944;2023-05-13T02:59:37;6.60;99.90
10247;DHT22;5168;47.854;7.944;2023-05-13T03:02:02;6.60;99.90
10247;DHT22;5168;47.854;7.944;2023-05-13T03:04:28;6.90;99.90
10247;DHT22;5168;47.854;7.944;2023-05-13T03:16:37;6.70;99.90
10247;DHT22;5168;47.854;7.944;2023-05-13T03:19:03;6.80;99.90
10247;DHT22;5168;47.854;7.944;2023-05-13T03:21:28;6.70;99.90
10247;DHT22;5168;47.854;7.944;2023-05-13T03:26:20;6.80;99.90
10247;DHT22;5168;47.854;7.944;2023-05-13T03:33:38;6.70;99.90
10247;DHT22;5168;47.854;7.944;2023-05-13T03:36:04;7.00;99.90
10247;DHT22;5168;47.854;7.944;2023-05-13T03:45:49;6.70;99.90
10247;DHT22;5168;47.854;7.944;2023-05-13T03:48:16;7.10;99.90
10247;DHT22;5168;47.854;7.944;2023-05-13T03:53:09;6.70;99.90
10247;DHT22;5168;47.854;7.944;2023-05-13T03:55:35;6.40;99.90
10247;DHT22;5168;47.854;7.944;2023-05-13T03:58:13;6.90;99.90
10247;DHT22;5168;47.854;7.944;2023-05-13T04:00:40;6.80;99.90
10247;DHT22;5168;47.854;7.944;2023-05-13T04:03:06;7.40;99.90
10247;DHT22;5168;47.854;7.944;2023-05-13T04:05:31;6.60;99.90
10247;DHT22;5168;47.854;7.944;2023-05-13T04:07:57;6.60;99.90
10247;DHT22;5168;47.854;7.944;2023-05-13T04:10:23;7.00;99.90
10247;DHT22;5168;47.854;7.944;2023-05-13T04:17:40;6.60;99.90
10247;DHT22;5168;47.854;7.944;2023-05-13T04:20:06;7.20;99.90
10247;DHT22;5168;47.854;7.944;2023-05-13T04:22:33;6.80;99.90
10247;DHT22;5168;47.854;7.944;2023-05-13T04:32:17;6.90;99.90
10247;DHT22;5168;47.854;7.944;2023-05-13T04:34:49;7.40;99.90
10247;DHT22;5168;47.854;7.944;2023-05-13T04:37:15;6.90;99.90
10247;DHT22;5168;47.854;7.944;2023-05-13T04:39:44;7.00;99.90
10247;DHT22;5168;47.854;7.944;2023-05-13T04:49:28;6.90;99.90
10247;DHT22;5168;47.854;7.944;2023-05-13T04:51:53;7.20;99.90
10247;DHT22;5168;47.854;7.944;2023-05-13T04:54:19;6.90;99.90
10247;DHT22;5168;47.854;7.944;2023-05-13T05:04:03;7.00;99.90
10247;DHT22;5168;47.854;7.944;2023-05-13T05:16:13;7.20;99.90
10247;DHT22;5168;47.854;7.944;2023-05-13T05:18:39;7.50;99.90
10247;DHT22;5168;47.854;7.944;2023-05-13T05:21:08;7.20;99.90
10247;DHT22;5168;47.854;7.944;2023-05-13T05:23:34;7.50;99.90
10247;DHT22;5168;47.854;7.944;2023-05-13T05:26:00;7.50;99.90
10247;DHT22;5168;47.854;7.944;2023-05-13T05:28:25;7.40;99.90
10247;DHT22;5168;47.854;7.944;2023-05-13T05:30:51;7.50;99.90
10247;DHT22;5168;47.854;7.944;2023-05-13T05:33:17;7.30;99.90
10247;DHT22;5168;47.854;7.944;2023-05-13T05:35:43;7.40;99.90
10247;DHT22;5168;47.854;7.944;2023-05-13T05:38:09;7.50;99.90
10247;DHT22;5168;47.854;7.944;2023-05-13T05:40:39;7.10;99.90
10247;DHT22;5168;47.854;7.944;2023-05-13T05:45:33;7.40;99.90
10247;DHT22;5168;47.854;7.944;2023-05-13T05:50:26;7.00;99.90
10247;DHT22;5168;47.854;7.944;2023-05-13T05:52:51;7.40;99.90
10247;DHT22;5168;47.854;7.944;2023-05-13T05:55:17;7.30;99.90
10247;DHT22;5168;47.854;7.944;2023-05-13T05:57:42;7.30;99.90
10247;DHT22;5168;47.854;7.944;2023-05-13T06:00:08;8.00;99.90
10247;DHT22;5168;47.854;7.944;2023-05-13T06:02:34;7.70;99.90
10247;DHT22;5168;47.854;7.944;2023-05-13T06:05:00;7.50;99.90
10247;DHT22;5168;47.854;7.944;2023-05-13T06:07:25;7.50;99.90
10247;DHT22;5168;47.854;7.944;2023-05-13T06:09:51;8.00;99.90
10247;DHT22;5168;47.854;7.944;2023-05-13T06:12:16;7.70;99.90
10247;DHT22;5168;47.854;7.944;2023-05-13T06:17:08;8.00;99.90
10247;DHT22;5168;47.854;7.944;2023-05-13T06:19:33;7.90;99.90
10247;DHT22;5168;47.854;7.944;2023-05-13T06:21:59;8.00;99.90
10247;DHT22;5168;47.854;7.944;2023-05-13T06:26:50;7.90;99.90
10247;DHT22;5168;47.854;7.944;2023-05-13T06:29:16;8.10;99.90
10247;DHT22;5168;47.854;7.944;2023-05-13T06:31:42;7.70;99.90
10247;DHT22;5168;47.854;7.944;2023-05-13T06:34:07;7.80;99.90
10247;DHT22;5168;47.854;7.944;2023-05-13T06:36:34;7.60;99.90
10247;DHT22;5168;47.854;7.944;2023-05-13T06:41:26;7.40;99.90
10247;DHT22;5168;47.854;7.944;2023-05-13T06:51:09;8.00;99.90
10247;DHT22;5168;47.854;7.944;2023-05-13T06:53:35;8.20;99.90
10247;DHT22;5168;47.854;7.944;2023-05-13T06:56:00;8.50;99.90
10247;DHT22;5168;47.854;7.944;2023-05-13T07:05:44;8.60;99.90
10247;DHT22;5168;47.854;7.944;2023-05-13T07:08:10;8.20;99.90
10247;DHT22;5168;47.854;7.944;2023-05-13T07:10:41;8.50;99.90
10247;DHT22;5168;47.854;7.944;2023-05-13T07:13:06;8.30;99.90
10247;DHT22;5168;47.854;7.944;2023-05-13T07:15:32;9.00;99.90
10247;DHT22;5168;47.854;7.944;2023-05-13T07:17:58;8.40;99.90
10247;DHT22;5168;47.854;7.944;2023-05-13T07:22:50;8.70;99.90
10247;DHT22;5168;47.854;7.944;2023-05-13T07:25:17;8.60;99.90
10247;DHT22;5168;47.854;7.944;2023-05-13T07:27:43;8.40;99.90
10247;DHT22;5168;47.854;7.944;2023-05-13T07:30:09;7.90;99.90
10247;DHT22;5168;47.854;7.944;2023-05-13T07:35:02;8.60;99.90
10247;DHT22;5168;47.854;7.944;2023-05-13T07:39:54;8.70;99.90
10247;DHT22;5168;47.854;7.944;2023-05-13T07:42:19;9.00;99.90
10247;DHT22;5168;47.854;7.944;2023-05-13T07:44:45;8.60;99.90
10247;DHT22;5168;47.854;7.944;2023-05-13T08:01:47;9.10;99.90
10247;DHT22;5168;47.854;7.944;2023-05-13T08:04:12;9.10;99.90
10247;DHT22;5168;47.854;7.944;2023-05-13T08:06:38;9.30;99.90
10247;DHT22;5168;47.854;7.944;2023-05-13T08:11:30;9.60;99.90
10247;DHT22;5168;47.854;7.944;2023-05-13T08:13:56;9.60;99.90
10247;DHT22;5168;47.854;7.944;2023-05-13T08:18:48;9.00;99.90
10247;DHT22;5168;47.854;7.944;2023-05-13T08:21:13;9.80;99.90
10247;DHT22;5168;47.854;7.944;2023-05-13T08:23:39;10.10;99.90
10247;DHT22;5168;47.854;7.944;2023-05-13T08:33:31;10.00;99.90
10247;DHT22;5168;47.854;7.944;2023-05-13T08:35:58;10.10;99.90
10247;DHT22;5168;47.854;7.944;2023-05-13T08:38:24;10.30;99.90
10247;DHT22;5168;47.854;7.944;2023-05-13T08:45:45;10.40;99.90
10247;DHT22;5168;47.854;7.944;2023-05-13T08:48:15;10.70;99.90
10247;DHT22;5168;47.854;7.944;2023-05-13T08:50:43;10.60;99.90
10247;DHT22;5168;47.854;7.944;2023-05-13T08:53:10;11.00;99.90
10247;DHT22;5168;47.854;7.944;2023-05-13T08:55:38;11.50;99.90
10247;DHT22;5168;47.854;7.944;2023-05-13T08:58:04;11.00;99.90
10247;DHT22;5168;47.854;7.944;2023-05-13T09:00:31;11.40;99.90
10247;DHT22;5168;47.854;7.944;2023-05-13T09:10:16;11.50;99.90
10247;DHT22;5168;47.854;7.944;2023-05-13T09:12:54;11.50;99.90
10247;DHT22;5168;47.854;7.944;2023-05-13T09:15:25;11.80;99.90
10247;DHT22;5168;47.854;7.944;2023-05-13T09:17:53;12.30;99.90
10247;DHT22;5168;47.854;7.944;2023-05-13T09:20:20;12.40;99.90
10247;DHT22;5168;47.854;7.944;2023-05-13T09:22:51;12.60;99.90
10247;DHT22;5168;47.854;7.944;2023-05-13T09:25:18;12.90;99.90
10247;DHT22;5168;47.854;7.944;2023-05-13T09:27:55;13.70;99.90
10247;DHT22;5168;47.854;7.944;2023-05-13T09:30:25;13.60;99.90
10247;DHT22;5168;47.854;7.944;2023-05-13T09:33:15;14.60;99.90
10247;DHT22;5168;47.854;7.944;2023-05-13T09:35:48;15.00;99.90
10247;DHT22;5168;47.854;7.944;2023-05-13T09:38:15;15.20;99.90
10247;DHT22;5168;47.854;7.944;2023-05-13T09:40:49;14.70;99.90
10247;DHT22;5168;47.854;7.944;2023-05-13T09:43:15;14.50;99.90
10247;DHT22;5168;47.854;7.944;2023-05-13T09:45:40;14.90;99.90
10247;DHT22;5168;47.854;7.944;2023-05-13T09:48:07;14.70;99.90
10247;DHT22;5168;47.854;7.944;2023-05-13T09:50:32;14.30;99.90
10247;DHT22;5168;47.854;7.944;2023-05-13T09:53:09;13.80;99.90
10247;DHT22;5168;47.854;7.944;2023-05-13T09:55:35;13.90;99.90
10247;DHT22;5168;47.854;7.944;2023-05-13T09:58:01;13.30;99.90
10247;DHT22;5168;47.854;7.944;2023-05-13T10:02:54;12.20;99.90
10247;DHT22;5168;47.854;7.944;2023-05-13T10:05:20;12.60;99.90
10247;DHT22;5168;47.854;7.944;2023-05-13T10:07:46;12.80;99.90
10247;DHT22;5168;47.854;7.944;2023-05-13T10:10:12;12.20;99.90
10247;DHT22;5168;47.854;7.944;2023-05-13T10:12:38;12.10;99.90
10247;DHT22;5168;47.854;7.944;2023-05-13T10:15:06;12.10;99.90
10247;DHT22;5168;47.854;7.944;2023-05-13T10:19:59;12.60;99.90
10247;DHT22;5168;47.854;7.944;2023-05-13T10:22:31;12.50;99.90
10247;DHT22;5168;47.854;7.944;2023-05-13T10:24:59;12.20;99.90
10247;DHT22;5168;47.854;7.944;2023-05-13T10:27:29;12.10;99.90
10247;DHT22;5168;47.854;7.944;2023-05-13T10:29:57;12.10;99.90
10247;DHT22;5168;47.854;7.944;2023-05-13T10:32:27;12.20;99.90
10247;DHT22;5168;47.854;7.944;2023-05-13T10:35:11;11.70;99.90
10247;DHT22;5168;47.854;7.944;2023-05-13T10:37:49;12.20;99.90
10247;DHT22;5168;47.854;7.944;2023-05-13T10:45:33;12.00;99.90
10247;DHT22;5168;47.854;7.944;2023-05-13T10:48:05;11.90;99.90
10247;DHT22;5168;47.854;7.944;2023-05-13T10:52:57;11.60;99.90
10247;DHT22;5168;47.854;7.944;2023-05-13T10:55:25;11.80;99.90
10247;DHT22;5168;47.854;7.944;2023-05-13T10:58:04;11.70;99.90
10247;DHT22;5168;47.854;7.944;2023-05-13T11:03:11;11.70;99.90
10247;DHT22;5168;47.854;7.944;2023-05-13T11:05:43;11.90;99.90
10247;DHT22;5168;47.854;7.944;2023-05-13T11:08:09;11.70;99.90
10247;DHT22;5168;47.854;7.944;2023-05-13T11:10:35;11.90;99.90
10247;DHT22;5168;47.854;7.944;2023-05-13T11:15:53;11.40;99.90
10247;DHT22;5168;47.854;7.944;2023-05-13T11:18:28;11.50;99.90
10247;DHT22;5168;47.854;7.944;2023-05-13T11:20:54;11.10;99.90
10247;DHT22;5168;47.854;7.944;2023-05-13T11:26:10;11.10;99.90
10247;DHT22;5168;47.854;7.944;2023-05-13T11:31:18;11.00;99.90
10247;DHT22;5168;47.854;7.944;2023-05-13T11:34:18;10.90;99.90
10247;DHT22;5168;47.854;7.944;2023-05-13T11:39:23;10.90;99.90
10247;DHT22;5168;47.854;7.944;2023-05-13T11:41:52;10.70;99.90
10247;DHT22;5168;47.854;7.944;2023-05-13T11:44:20;11.10;99.90
10247;DHT22;5168;47.854;7.944;2023-05-13T11:46:54;10.80;99.90
10247;DHT22;5168;47.854;7.944;2023-05-13T11:52:01;10.90;99.90
10247;DHT22;5168;47.854;7.944;2023-05-13T11:54:27;10.00;99.90
10247;DHT22;5168;47.854;7.944;2023-05-13T11:56:52;10.50;99.90
10247;DHT22;5168;47.854;7.944;2023-05-13T12:06:43;10.70;99.90
10247;DHT22;5168;47.854;7.944;2023-05-13T12:09:11;10.30;99.90
10247;DHT22;5168;47.854;7.944;2023-05-13T12:11:38;10.30;99.90
10247;DHT22;5168;47.854;7.944;2023-05-13T12:14:04;10.70;99.90
10247;DHT22;5168;47.854;7.944;2023-05-13T12:16:30;10.00;99.90
10247;DHT22;5168;47.854;7.944;2023-05-13T12:18:59;10.70;99.90
10247;DHT22;5168;47.854;7.944;2023-05-13T12:21:31;10.00;99.90
10247;DHT22;5168;47.854;7.944;2023-05-13T12:23:57;10.30;99.90
10247;DHT22;5168;47.854;7.944;2023-05-13T12:26:23;10.30;99.90
10247;DHT22;5168;47.854;7.944;2023-05-13T12:28:55;10.50;99.90
10247;DHT22;5168;47.854;7.944;2023-05-13T12:31:21;10.80;99.90
10247;DHT22;5168;47.854;7.944;2023-05-13T12:33:48;10.70;99.90
10247;DHT22;5168;47.854;7.944;2023-05-13T12:39:18;10.90;99.90
10247;DHT22;5168;47.854;7.944;2023-05-13T12:41:41;11.10;99.90
10247;DHT22;5168;47.854;7.944;2023-05-13T12:49:01;10.60;99.90
10247;DHT22;5168;47.854;7.944;2023-05-13T12:51:28;11.00;99.90
10247;DHT22;5168;47.854;7.944;2023-05-13T12:53:58;11.20;99.90
10247;DHT22;5168;47.854;7.944;2023-05-13T12:56:24;11.10;99.90
10247;DHT22;5168;47.854;7.944;2023-05-13T12:58:52;10.20;99.90
10247;DHT22;5168;47.854;7.944;2023-05-13T13:01:19;11.40;99.90
10247;DHT22;5168;47.854;7.944;2023-05-13T13:03:45;10.80;99.90
10247;DHT22;5168;47.854;7.944;2023-05-13T13:06:11;11.10;99.90
10247;DHT22;5168;47.854;7.944;2023-05-13T13:13:30;11.20;99.90
10247;DHT22;5168;47.854;7.944;2023-05-13T13:15:57;11.20;99.90
10247;DHT22;5168;47.854;7.944;2023-05-13T13:18:22;10.90;99.90
10247;DHT22;5168;47.854;7.944;2023-05-13T13:25:42;10.90;99.90
10247;DHT22;5168;47.854;7.944;2023-05-13T13:28:07;11.30;99.90
10247;DHT22;5168;47.854;7.944;2023-05-13T13:30:33;10.20;99.90
10247;DHT22;5168;47.854;7.944;2023-05-13T13:40:18;10.40;99.90
10247;DHT22;5168;47.854;7.944;2023-05-13T13:42:44;10.60;99.90
10247;DHT22;5168;47.854;7.944;2023-05-13T13:45:13;10.80;99.90
10247;DHT22;5168;47.854;7.944;2023-05-13T13:47:40;10.70;99.90
10247;DHT22;5168;47.854;7.944;2023-05-13T13:50:06;10.40;99.90
10247;DHT22;5168;47.854;7.944;2023-05-13T13:54:57;10.40;99.90
10247;DHT22;5168;47.854;7.944;2023-05-13T13:57:22;10.50;99.90
10247;DHT22;5168;47.854;7.944;2023-05-13T13:59:48;10.20;99.90
10247;DHT22;5168;47.854;7.944;2023-05-13T14:04:39;10.40;99.90
10247;DHT22;5168;47.854;7.944;2023-05-13T14:07:05;10.80;99.90
10247;DHT22;5168;47.854;7.944;2023-05-13T14:09:30;10.70;99.90
10247;DHT22;5168;47.854;7.944;2023-05-13T14:11:57;10.70;99.90
10247;DHT22;5168;47.854;7.944;2023-05-13T14:16:49;10.80;99.90
10247;DHT22;5168;47.854;7.944;2023-05-13T14:26:36;10.80;99.90
10247;DHT22;5168;47.854;7.944;2023-05-13T14:29:01;11.40;99.90
10247;DHT22;5168;47.854;7.944;2023-05-13T14:33:53;10.90;99.90
10247;DHT22;5168;47.854;7.944;2023-05-13T14:36:18;10.80;99.90
10247;DHT22;5168;47.854;7.944;2023-05-13T14:38:45;10.80;99.90
10247;DHT22;5168;47.854;7.944;2023-05-13T14:41:11;11.00;99.90
10247;DHT22;5168;47.854;7.944;2023-05-13T14:43:36;10.80;99.90
10247;DHT22;5168;47.854;7.944;2023-05-13T14:48:28;10.60;99.90
10247;DHT22;5168;47.854;7.944;2023-05-13T14:58:12;10.50;99.90
10247;DHT22;5168;47.854;7.944;2023-05-13T15:00:38;10.70;99.90
10247;DHT22;5168;47.854;7.944;2023-05-13T15:03:04;11.20;99.90
10247;DHT22;5168;47.854;7.944;2023-05-13T15:05:30;11.10;99.90
10247;DHT22;5168;47.854;7.944;2023-05-13T15:07:55;10.70;99.90
10247;DHT22;5168;47.854;7.944;2023-05-13T15:10:22;10.90;99.90
10247;DHT22;5168;47.854;7.944;2023-05-13T15:12:47;10.80;99.90
10247;DHT22;5168;47.854;7.944;2023-05-13T15:15:13;10.90;99.90
10247;DHT22;5168;47.854;7.944;2023-05-13T15:17:38;11.50;99.90
10247;DHT22;5168;47.854;7.944;2023-05-13T15:20:04;11.00;99.90
10247;DHT22;5168;47.854;7.944;2023-05-13T15:22:30;11.00;99.90
10247;DHT22;5168;47.854;7.944;2023-05-13T15:27:21;11.20;99.90
10247;DHT22;5168;47.854;7.944;2023-05-13T15:29:47;11.20;99.90
10247;DHT22;5168;47.854;7.944;2023-05-13T15:32:12;11.20;99.90
10247;DHT22;5168;47.854;7.944;2023-05-13T15:37:04;11.70;99.90
10247;DHT22;5168;47.854;7.944;2023-05-13T15:39:29;11.70;99.90
10247;DHT22;5168;47.854;7.944;2023-05-13T15:41:55;11.00;99.90
10247;DHT22;5168;47.854;7.944;2023-05-13T15:54:05;11.00;99.90
10247;DHT22;5168;47.854;7.944;2023-05-13T15:56:30;11.60;99.90
10247;DHT22;5168;47.854;7.944;2023-05-13T15:58:56;11.60;99.90
10247;DHT22;5168;47.854;7.944;2023-05-13T16:11:05;11.40;99.90
10247;DHT22;5168;47.854;7.944;2023-05-13T16:13:31;10.60;99.90
10247;DHT22;5168;47.854;7.944;2023-05-13T16:15:56;10.90;99.90
10247;DHT22;5168;47.854;7.944;2023-05-13T16:20:48;11.10;99.90
10247;DHT22;5168;47.854;7.944;2023-05-13T16:23:14;10.90;99.90
10247;DHT22;5168;47.854;7.944;2023-05-13T16:25:40;11.00;99.90
10247;DHT22;5168;47.854;7.944;2023-05-13T16:32:58;11.20;99.90
10247;DHT22;5168;47.854;7.944;2023-05-13T16:35:24;10.90;99.90
10247;DHT22;5168;47.854;7.944;2023-05-13T16:37:50;11.00;99.90
10247;DHT22;5168;47.854;7.944;2023-05-13T16:40:16;11.00;99.90
10247;DHT22;5168;47.854;7.944;2023-05-13T16:42:41;11.30;99.90
10247;DHT22;5168;47.854;7.944;2023-05-13T16:45:07;10.60;99.90
10247;DHT22;5168;47.854;7.944;2023-05-13T16:47:33;10.50;99.90
10247;DHT22;5168;47.854;7.944;2023-05-13T16:49:58;10.60;99.90
10247;DHT22;5168;47.854;7.944;2023-05-13T16:52:25;10.60;99.90
10247;DHT22;5168;47.854;7.944;2023-05-13T16:54:51;10.60;99.90
10247;DHT22;5168;47.854;7.944;2023-05-13T16:57:18;10.40;99.90
10247;DHT22;5168;47.854;7.944;2023-05-13T16:59:45;10.90;99.90
10247;DHT22;5168;47.854;7.944;2023-05-13T17:02:11;10.50;99.90
10247;DHT22;5168;47.854;7.944;2023-05-13T17:09:29;10.30;99.90
10247;DHT22;5168;47.854;7.944;2023-05-13T17:14:21;10.20;99.90
10247;DHT22;5168;47.854;7.944;2023-05-13T17:16:47;10.50;99.90
10247;DHT22;5168;47.854;7.944;2023-05-13T17:19:12;10.30;99.90
10247;DHT22;5168;47.854;7.944;2023-05-13T17:21:38;9.80;99.90
10247;DHT22;5168;47.854;7.944;2023-05-13T17:24:04;10.20;99.90
10247;DHT22;5168;47.854;7.944;2023-05-13T17:26:30;9.70;99.90
10247;DHT22;5168;47.854;7.944;2023-05-13T17:28:56;10.00;99.90
10247;DHT22;5168;47.854;7.944;2023-05-13T17:33:49;9.90;99.90
10247;DHT22;5168;47.854;7.944;2023-05-13T17:38:40;9.40;99.90
10247;DHT22;5168;47.854;7.944;2023-05-13T17:43:32;8.90;99.90
10247;DHT22;5168;47.854;7.944;2023-05-13T17:45:57;9.50;99.90
10247;DHT22;5168;47.854;7.944;2023-05-13T17:48:23;9.40;99.90
10247;DHT22;5168;47.854;7.944;2023-05-13T17:50:49;9.20;99.90
10247;DHT22;5168;47.854;7.944;2023-05-13T17:53:15;9.10;99.90
10247;DHT22;5168;47.854;7.944;2023-05-13T17:58:06;9.10;99.90
10247;DHT22;5168;47.854;7.944;2023-05-13T18:02:58;9.40;99.90
10247;DHT22;5168;47.854;7.944;2023-05-13T18:05:23;8.80;99.90
10247;DHT22;5168;47.854;7.944;2023-05-13T18:12:41;9.20;99.90
10247;DHT22;5168;47.854;7.944;2023-05-13T18:15:07;8.70;99.90
10247;DHT22;5168;47.854;7.944;2023-05-13T18:17:32;8.40;99.90
10247;DHT22;5168;47.854;7.944;2023-05-13T18:27:16;9.10;99.90
10247;DHT22;5168;47.854;7.944;2023-05-13T18:29:41;9.20;99.90
10247;DHT22;5168;47.854;7.944;2023-05-13T18:32:07;9.00;99.90
10247;DHT22;5168;47.854;7.944;2023-05-13T18:39:24;8.40;99.90
10247;DHT22;5168;47.854;7.944;2023-05-13T18:44:16;8.50;99.90
10247;DHT22;5168;47.854;7.944;2023-05-13T18:46:41;9.00;99.90
10247;DHT22;5168;47.854;7.944;2023-05-13T18:49:10;8.70;99.90
10247;DHT22;5168;47.854;7.944;2023-05-13T18:51:36;8.70;99.90
10247;DHT22;5168;47.854;7.944;2023-05-13T18:54:03;8.70;99.90
10247;DHT22;5168;47.854;7.944;2023-05-13T18:56:32;8.50;99.90
10247;DHT22;5168;47.854;7.944;2023-05-13T18:58:58;9.60;99.90
10247;DHT22;5168;47.854;7.944;2023-05-13T19:01:24;8.50;99.90
10247;DHT22;5168;47.854;7.944;2023-05-13T19:03:50;8.50;99.90
10247;DHT22;5168;47.854;7.944;2023-05-13T19:13:34;8.10;99.90
10247;DHT22;5168;47.854;7.944;2023-05-13T19:16:00;8.40;99.90
10247;DHT22;5168;47.854;7.944;2023-05-13T19:18:26;8.10;99.90
10247;DHT22;5168;47.854;7.944;2023-05-13T19:20:52;8.20;99.90
10247;DHT22;5168;47.854;7.944;2023-05-13T19:23:17;8.60;99.90
10247;DHT22;5168;47.854;7.944;2023-05-13T19:33:02;8.30;99.90
10247;DHT22;5168;47.854;7.944;2023-05-13T19:35:28;8.40;99.90
10247;DHT22;5168;47.854;7.944;2023-05-13T19:37:54;8.00;99.90
10247;DHT22;5168;47.854;7.944;2023-05-13T19:40:20;8.60;99.90
10247;DHT22;5168;47.854;7.944;2023-05-13T19:42:46;8.20;99.90
10247;DHT22;5168;47.854;7.944;2023-05-13T19:45:12;8.20;99.90
10247;DHT22;5168;47.854;7.944;2023-05-13T19:47:37;8.50;99.90
10247;DHT22;5168;47.854;7.944;2023-05-13T19:50:03;8.00;99.90
10247;DHT22;5168;47.854;7.944;2023-05-13T19:52:29;8.10;99.90
10247;DHT22;5168;47.854;7.944;2023-05-13T19:54:55;8.10;99.90
10247;DHT22;5168;47.854;7.944;2023-05-13T20:04:38;7.90;99.90
10247;DHT22;5168;47.854;7.944;2023-05-13T20:07:04;7.80;99.90
10247;DHT22;5168;47.854;7.944;2023-05-13T20:09:29;7.90;99.90
10247;DHT22;5168;47.854;7.944;2023-05-13T20:14:22;7.70;99.90
10247;DHT22;5168;47.854;7.944;2023-05-13T20:21:43;7.50;99.90
10247;DHT22;5168;47.854;7.944;2023-05-13T20:24:09;7.80;99.90
10247;DHT22;5168;47.854;7.944;2023-05-13T20:26:34;7.40;99.90
10247;DHT22;5168;47.854;7.944;2023-05-13T20:29:00;7.90;99.90
10247;DHT22;5168;47.854;7.944;2023-05-13T20:33:52;7.30;99.90
10247;DHT22;5168;47.854;7.944;2023-05-13T20:36:17;7.60;99.90
10247;DHT22;5168;47.854;7.944;2023-05-13T20:38:43;6.90;99.90
10247;DHT22;5168;47.854;7.944;2023-05-13T20:46:04;7.30;99.90
10247;DHT22;5168;47.854;7.944;2023-05-13T20:51:04;7.40;99.90
10247;DHT22;5168;47.854;7.944;2023-05-13T20:53:33;7.20;99.90
10247;DHT22;5168;47.854;7.944;2023-05-13T20:55:59;7.20;99.90
10247;DHT22;5168;47.854;7.944;2023-05-13T20:58:24;6.90;99.90
10247;DHT22;5168;47.854;7.944;2023-05-13T21:00:50;7.10;99.90
10247;DHT22;5168;47.854;7.944;2023-05-13T21:03:16;6.60;99.90
10247;DHT22;5168;47.854;7.944;2023-05-13T21:10:33;7.10;99.90
10247;DHT22;5168;47.854;7.944;2023-05-13T21:12:59;6.90;99.90
10247;DHT22;5168;47.854;7.944;2023-05-13T21:15:26;7.20;99.90
10247;DHT22;5168;47.854;7.944;2023-05-13T21:17:52;6.70;99.90
10247;DHT22;5168;47.854;7.944;2023-05-13T21:20:17;6.60;99.90
10247;DHT22;5168;47.854;7.944;2023-05-13T21:22:43;6.90;99.90
10247;DHT22;5168;47.854;7.944;2023-05-13T21:30:01;6.70;99.90
10247;DHT22;5168;47.854;7.944;2023-05-13T21:34:54;6.80;99.90
10247;DHT22;5168;47.854;7.944;2023-05-13T21:37:20;6.70;99.90
10247;DHT22;5168;47.854;7.944;2023-05-13T21:44:37;6.50;99.90
10247;DHT22;5168;47.854;7.944;2023-05-13T21:49:29;6.40;99.90
10247;DHT22;5168;47.854;7.944;2023-05-13T21:51:54;6.50;99.90
10247;DHT22;5168;47.854;7.944;2023-05-13T21:59:12;6.50;99.90
10247;DHT22;5168;47.854;7.944;2023-05-13T22:01:37;6.40;99.90
10247;DHT22;5168;47.854;7.944;2023-05-13T22:04:03;6.30;99.90
10247;DHT22;5168;47.854;7.944;2023-05-13T22:08:55;6.40;99.90
10247;DHT22;5168;47.854;7.944;2023-05-13T22:11:20;6.10;99.90
10247;DHT22;5168;47.854;7.944;2023-05-13T22:13:46;6.10;99.90
10247;DHT22;5168;47.854;7.944;2023-05-13T22:16:11;5.50;99.90
10247;DHT22;5168;47.854;7.944;2023-05-13T22:18:38;6.00;99.90
10247;DHT22;5168;47.854;7.944;2023-05-13T22:21:04;6.30;99.90
10247;DHT22;5168;47.854;7.944;2023-05-13T22:23:30;6.20;99.90
10247;DHT22;5168;47.854;7.944;2023-05-13T22:30:49;6.50;99.90
10247;DHT22;5168;47.854;7.944;2023-05-13T22:35:41;6.00;99.90
10247;DHT22;5168;47.854;7.944;2023-05-13T22:38:07;5.90;99.90
10247;DHT22;5168;47.854;7.944;2023-05-13T22:40:32;5.90;99.90
10247;DHT22;5168;47.854;7.944;2023-05-13T22:55:08;5.50;99.90
10247;DHT22;5168;47.854;7.944;2023-05-13T22:57:34;5.20;99.90
10247;DHT22;5168;47.854;7.944;2023-05-13T23:00:00;5.70;99.90